Create Tblcommutelog Verified Points Advance Search
| # | Trip ID | Id Commuter | Trip Date | Trip Num | Current Lat | Current Lng | Delta Distance | Current Time | Activity | Activity Confidence | Current Speed | |
|---|---|---|---|---|---|---|---|---|---|---|---|---|
| 69701 | 260112_788116_16505268_0630 | 788116 | (not set) | (not set) | 39.015523298422 | -77.469744177163 | 2.4691 | 2026-01-12 06:45:16 | in_vehicle | 100 | 9.7186334903931 | |
| 69702 | 260112_704324_16424143_0639 | 704324 | (not set) | (not set) | 38.610704537545 | -77.358871621965 | 1.3201 | 2026-01-12 06:45:28 | in_vehicle | 100 | 4.3541623825404 | |
| 69703 | 260112_788220_16489920_0630 | 788220 | (not set) | (not set) | 38.858083766372 | -77.36767841485 | 16.0813 | 2026-01-12 06:45:39 | in_vehicle | 100 | 13.509526406609 | |
| 69704 | 260112_765830_16503560_0630 | 765830 | (not set) | (not set) | 38.88288299887 | -77.103374424222 | 7.6573 | 2026-01-12 06:45:47 | in_vehicle | 100 | -0.44703925898772 | |
| 69705 | 260112_769092_16489920_0631 | 769092 | (not set) | (not set) | 38.878642222651 | -77.260874492864 | 18.3913 | 2026-01-12 06:46:01 | in_vehicle | 100 | 15.758133879317 | |
| 69706 | 260112_113832_16457490_0632 | 113832 | (not set) | (not set) | 39.04488409554 | -77.111352847975 | 5.9438 | 2026-01-12 06:44:50 | in_vehicle | 100 | -0.44703925898772 | |
| 69707 | 260112_762140_16491788_0625 | 762140 | (not set) | (not set) | 38.570126815937 | -77.333235883562 | 19.3445 | 2026-01-12 06:46:16 | in_vehicle | 100 | 15.972712723631 | |
| 69708 | 260112_789579_16464305_0634 | 789579 | (not set) | (not set) | 38.960476962073 | -77.414797744015 | 6.1018 | 2026-01-12 06:46:20 | in_vehicle | 100 | 0 | |
| 69709 | 260112_781236_16513374_0644 | 781236 | (not set) | (not set) | 38.961619301062 | -77.030032099593 | 0.1669 | 2026-01-12 06:46:27 | unknown | 100 | 5.0157804858423 | |
| 69710 | 260112_113832_16457490_0632 | 113832 | (not set) | (not set) | 39.043964194064 | -77.11102435602 | 5.9438 | 2026-01-12 06:44:45 | in_vehicle | 100 | -0.44703925898772 | |
| 69711 | 260112_714319_16514952_0646 | 714319 | (not set) | (not set) | 38.796515582955 | -77.321963431953 | 0 | 2026-01-12 06:46:40 | still | 33 | -0.44703925898772 | |
| 69712 | 260112_769092_16489920_0631 | 769092 | (not set) | (not set) | 38.87975767657 | -77.241307143592 | 19.4492 | 2026-01-12 06:46:49 | still | 33 | 15.878834479244 | |
| 69713 | 260112_788361_16489920_0631 | 788361 | (not set) | (not set) | 38.879772323815 | -77.241322790144 | 19.1618 | 2026-01-12 06:46:49 | unknown | 100 | 15.856482516295 | |
| 69714 | 260112_780343_6428227_0621 | 780343 | (not set) | (not set) | 39.167327808906 | -77.242042112692 | 12.4582 | 2026-01-12 06:46:57 | still | 33 | 9.1196008833496 | |
| 69715 | 260112_113832_16457490_0632 | 113832 | (not set) | (not set) | 39.016120369145 | -77.10064243227 | 8.1369 | 2026-01-12 06:47:06 | in_vehicle | 100 | 12.812145162588 | |
| 69716 | 260112_788221_16489920_0630 | 788221 | (not set) | (not set) | 38.882061316667 | -77.2317016 | 20.666 | 2026-01-12 06:47:15 | unknown | 100 | 15.798367412626 | |
| 69717 | 260112_788423_16505268_0625 | 788423 | (not set) | (not set) | 38.79485389355 | -77.144476023949 | 23.0823 | 2026-01-12 06:47:26 | in_vehicle | 100 | 14.989226353858 | |
| 69718 | 260112_791104_16461454_0635 | 791104 | (not set) | (not set) | 39.192121558827 | -76.693651863264 | 5.4367 | 2026-01-12 06:47:33 | still | 33 | -0.44703925898772 | |
| 69719 | 260112_789860_16489920_0630 | 789860 | (not set) | (not set) | 38.885309507921 | -77.221424236083 | 21.2788 | 2026-01-12 06:47:49 | in_vehicle | 100 | 12.534980822016 | |
| 69720 | 260112_765397_16507519_0643 | 765397 | (not set) | (not set) | 39.275397169482 | -76.614294342169 | 0.1866 | 2026-01-12 06:48:02 | still | 33 | -0.44703925898772 |